Time;durP1;ratioP1;P1;durP2;ratioP2;P2;SDS_P1;SDS_P2;PMS_P1;PMS_P2;Temp;Humidity;BMP_temperature;BMP_pressure;BME280_temperature;BME280_humidity;BME280_pressure;Samples;Min_cycle;Max_cycle;Signal;HPM_P1;HPM_P2
2021/04/24 00:02:54;;;;;;;1.00;0.80;;;21.40;45.20;;;;;;6317135;28;20055;-64
2021/04/24 00:05:55;;;;;;;0.52;0.52;;;21.40;45.20;;;;;;6317195;28;20359;-64
2021/04/24 00:08:57;;;;;;;0.98;0.68;;;21.40;45.20;;;;;;6318659;28;20023;-64
2021/04/24 00:11:57;;;;;;;1.13;0.70;;;21.50;45.30;;;;;;6318426;28;20016;-64
2021/04/24 00:14:58;;;;;;;1.25;0.80;;;21.50;45.40;;;;;;6317950;28;20375;-63
2021/04/24 00:17:59;;;;;;;1.23;0.88;;;21.40;45.20;;;;;;6317787;28;20020;-64
2021/04/24 00:20:59;;;;;;;0.47;0.47;;;21.40;45.20;;;;;;6317416;28;20020;-64
2021/04/24 00:24:00;;;;;;;1.20;0.80;;;21.40;45.20;;;;;;6318347;28;20075;-64
2021/04/24 00:27:00;;;;;;;0.75;0.60;;;21.40;45.30;;;;;;6318315;28;20024;-64
2021/04/24 00:30:02;;;;;;;0.95;0.77;;;21.50;45.30;;;;;;6317711;28;20542;-64
2021/04/24 00:33:03;;;;;;;1.13;0.63;;;21.40;45.20;;;;;;6317360;28;20040;-64
2021/04/24 00:36:04;;;;;;;1.05;0.77;;;21.40;45.30;;;;;;6316030;28;20028;-64
2021/04/24 00:39:05;;;;;;;0.75;0.70;;;21.40;45.30;;;;;;6317218;28;20028;-64
2021/04/24 00:42:05;;;;;;;1.00;0.73;;;21.40;45.30;;;;;;6317441;28;20024;-63
2021/04/24 00:45:09;;;;;;;1.15;0.60;;;21.40;45.20;;;;;;6317761;28;20065;-64
2021/04/24 00:48:12;;;;;;;0.80;0.50;;;21.40;45.20;;;;;;6317080;28;20020;-63
2021/04/24 00:51:13;;;;;;;1.35;1.00;;;21.40;45.30;;;;;;6317329;28;20079;-63
2021/04/24 00:54:13;;;;;;;0.73;0.70;;;21.40;45.20;;;;;;6317450;28;20443;-63
2021/04/24 00:57:15;;;;;;;1.10;0.80;;;21.40;45.30;;;;;;6316762;28;20108;-63
2021/04/24 01:00:17;;;;;;;1.30;0.70;;;21.50;45.30;;;;;;6317271;28;20032;-64
2021/04/24 01:03:18;;;;;;;1.20;0.60;;;21.50;45.40;;;;;;6317112;28;20067;-63
2021/04/24 01:06:18;;;;;;;0.60;0.50;;;21.40;45.30;;;;;;6316937;28;20471;-64
2021/04/24 01:09:19;;;;;;;1.30;0.70;;;21.40;45.20;;;;;;6316983;28;20024;-64
2021/04/24 01:12:19;;;;;;;0.70;0.70;;;21.40;45.30;;;;;;6316580;28;20367;-63
2021/04/24 01:15:20;;;;;;;1.05;0.57;;;21.40;45.20;;;;;;6316224;28;20024;-65
2021/04/24 01:18:21;;;;;;;1.25;0.70;;;21.40;45.30;;;;;;6316484;28;20059;-64
2021/04/24 01:21:23;;;;;;;1.02;0.73;;;21.40;45.30;;;;;;6316615;28;20020;-64
2021/04/24 01:24:24;;;;;;;0.50;0.50;;;21.40;45.20;;;;;;6316642;28;20118;-64
2021/04/24 01:27:25;;;;;;;1.15;0.80;;;21.40;45.20;;;;;;6315817;28;20020;-63
2021/04/24 01:30:32;;;;;;;0.70;0.60;;;21.40;45.30;;;;;;6316358;28;20459;-63
2021/04/24 01:33:32;;;;;;;1.27;0.73;;;21.40;45.30;;;;;;6316176;28;20067;-63
2021/04/24 01:36:34;;;;;;;0.88;0.77;;;21.40;45.30;;;;;;6316576;28;20032;-64
2021/04/24 01:39:35;;;;;;;1.15;0.68;;;21.40;45.20;;;;;;6315839;28;20028;-63
2021/04/24 01:42:35;;;;;;;2.08;0.65;;;21.40;45.30;;;;;;6316581;28;20027;-64
2021/04/24 01:45:37;;;;;;;0.50;0.50;;;21.40;45.30;;;;;;6316541;28;20085;-63
2021/04/24 01:48:37;;;;;;;1.23;0.63;;;21.40;45.30;;;;;;6316060;28;20143;-64
2021/04/24 01:51:38;;;;;;;0.80;0.60;;;21.40;45.40;;;;;;6315956;28;20042;-63
2021/04/24 01:54:39;;;;;;;0.75;0.50;;;21.40;45.40;;;;;;6316193;28;20039;-65
2021/04/24 01:57:42;;;;;;;1.52;0.88;;;21.40;45.30;;;;;;6316554;28;20300;-64
2021/04/24 02:00:47;;;;;;;0.70;0.70;;;21.40;45.40;;;;;;6316604;28;20028;-64
2021/04/24 02:03:48;;;;;;;1.25;0.77;;;21.40;45.40;;;;;;6316268;28;20047;-64
2021/04/24 02:06:49;;;;;;;0.77;0.68;;;21.40;45.40;;;;;;6316947;28;20020;-63
2021/04/24 02:09:49;;;;;;;1.02;0.70;;;21.40;45.40;;;;;;6315637;28;20479;-63
2021/04/24 02:12:50;;;;;;;1.10;0.88;;;21.40;45.50;;;;;;6316086;28;20497;-64
2021/04/24 02:15:51;;;;;;;1.23;0.80;;;21.40;45.50;;;;;;6316542;28;20030;-64
2021/04/24 02:18:51;;;;;;;0.68;0.55;;;21.40;45.50;;;;;;6315705;28;20103;-64
2021/04/24 02:21:52;;;;;;;1.67;0.80;;;21.40;45.40;;;;;;6315810;28;20077;-64
2021/04/24 02:24:53;;;;;;;0.60;0.60;;;21.40;45.50;;;;;;6315923;28;20027;-63
2021/04/24 02:27:55;;;;;;;0.73;0.63;;;21.40;45.50;;;;;;6320745;28;20024;-63
2021/04/24 02:30:56;;;;;;;1.20;0.70;;;21.40;45.50;;;;;;6320675;28;20031;-63
2021/04/24 02:33:56;;;;;;;1.10;0.70;;;21.40;45.50;;;;;;6320465;28;20027;-63
2021/04/24 02:36:57;;;;;;;1.30;0.70;;;21.40;45.50;;;;;;6319213;28;20443;-64
2021/04/24 02:39:57;;;;;;;1.10;0.80;;;21.40;45.60;;;;;;6320351;28;20059;-64
2021/04/24 02:42:58;;;;;;;0.90;0.60;;;21.40;45.60;;;;;;6320060;28;20016;-64
2021/04/24 02:45:58;;;;;;;1.45;0.73;;;21.40;45.50;;;;;;6319997;28;20081;-64
2021/04/24 02:48:59;;;;;;;1.88;0.82;;;21.40;45.60;;;;;;6319917;28;20101;-64
2021/04/24 02:52:00;;;;;;;0.70;0.60;;;21.40;45.50;;;;;;6320317;28;20060;-63
2021/04/24 02:55:04;;;;;;;0.95;0.70;;;21.40;45.50;;;;;;6319891;28;20032;-63
2021/04/24 02:58:05;;;;;;;1.02;0.70;;;21.40;45.50;;;;;;6320400;28;20536;-64
2021/04/24 03:01:05;;;;;;;0.55;0.55;;;21.40;45.60;;;;;;6320178;28;20037;-64
2021/04/24 03:04:06;;;;;;;0.70;0.65;;;21.30;45.50;;;;;;6319884;28;20035;-63
2021/04/24 03:07:06;;;;;;;1.33;0.80;;;21.30;45.60;;;;;;6319790;28;20036;-64
2021/04/24 03:10:09;;;;;;;0.70;0.55;;;21.30;45.50;;;;;;6319760;28;20387;-64
2021/04/24 03:13:10;;;;;;;1.08;0.70;;;21.30;45.50;;;;;;6319711;28;20028;-63
2021/04/24 03:16:11;;;;;;;2.35;0.73;;;21.30;45.50;;;;;;6319576;28;20263;-65
2021/04/24 03:19:12;;;;;;;1.88;0.60;;;21.30;45.50;;;;;;6319919;28;20562;-64
2021/04/24 03:22:12;;;;;;;1.73;0.60;;;21.30;45.60;;;;;;6318913;28;20024;-64
2021/04/24 03:25:13;;;;;;;0.60;0.60;;;21.30;45.50;;;;;;6318946;28;20727;-64
2021/04/24 03:28:14;;;;;;;0.70;0.70;;;21.30;45.60;;;;;;6319563;28;20024;-64
2021/04/24 03:31:15;;;;;;;0.98;0.80;;;21.30;45.60;;;;;;6319145;28;20024;-65
2021/04/24 03:34:15;;;;;;;0.82;0.70;;;21.30;45.60;;;;;;6319140;28;20141;-64
2021/04/24 03:37:16;;;;;;;0.70;0.60;;;21.30;45.60;;;;;;6318669;28;20107;-64
2021/04/24 03:40:17;;;;;;;1.13;0.70;;;21.30;45.60;;;;;;6318773;28;20102;-63
2021/04/24 03:43:18;;;;;;;0.85;0.70;;;21.30;45.60;;;;;;6318652;28;20389;-63
2021/04/24 03:46:18;;;;;;;0.85;0.70;;;21.30;45.60;;;;;;6319260;28;20670;-64
2021/04/24 03:49:19;;;;;;;1.33;0.68;;;21.30;45.60;;;;;;6318726;28;20062;-63
2021/04/24 03:52:19;;;;;;;2.78;0.80;;;21.30;45.60;;;;;;6318737;28;20031;-64
2021/04/24 03:55:20;;;;;;;0.98;0.50;;;21.30;45.60;;;;;;6318742;28;20040;-63
2021/04/24 03:58:21;;;;;;;2.10;0.77;;;21.30;45.60;;;;;;6316902;28;20031;-64
2021/04/24 04:01:21;;;;;;;2.03;0.90;;;21.30;45.60;;;;;;6318615;28;20028;-63
2021/04/24 04:04:22;;;;;;;0.73;0.60;;;21.30;45.60;;;;;;6318499;28;20521;-63
2021/04/24 04:07:22;;;;;;;0.75;0.68;;;21.30;45.60;;;;;;6318630;28;20036;-64
2021/04/24 04:10:24;;;;;;;1.02;0.70;;;21.30;45.60;;;;;;6318422;28;20024;-64
2021/04/24 04:13:24;;;;;;;1.00;0.80;;;21.30;45.60;;;;;;6318102;28;20133;-64
2021/04/24 04:16:25;;;;;;;0.73;0.70;;;21.30;45.60;;;;;;6318442;28;20020;-64
2021/04/24 04:19:25;;;;;;;1.23;0.88;;;21.30;45.60;;;;;;6318085;28;20024;-64
2021/04/24 04:22:26;;;;;;;1.75;0.65;;;21.30;45.60;;;;;;6317854;28;20111;-64
2021/04/24 04:25:26;;;;;;;1.05;0.80;;;21.30;45.60;;;;;;6318033;28;20583;-64
2021/04/24 04:28:28;;;;;;;1.02;0.80;;;21.30;45.60;;;;;;6301128;28;20036;-63
2021/04/24 04:31:28;;;;;;;3.72;1.60;;;21.30;45.60;;;;;;6316072;28;20031;-63
2021/04/24 04:34:29;;;;;;;4.47;2.38;;;21.30;44.30;;;;;;6315888;28;20102;-64
2021/04/24 04:37:29;;;;;;;5.97;2.60;;;21.20;42.70;;;;;;6314988;28;20021;-64
2021/04/24 04:40:30;;;;;;;5.30;2.38;;;21.20;42.00;;;;;;6316025;28;20081;-64
2021/04/24 04:43:30;;;;;;;4.18;2.20;;;21.20;42.50;;;;;;6315494;28;20540;-64
2021/04/24 04:46:31;;;;;;;7.65;2.15;;;21.30;42.60;;;;;;6316090;28;20048;-64
2021/04/24 04:49:31;;;;;;;4.20;1.95;;;21.30;42.70;;;;;;6315473;28;20490;-63
2021/04/24 04:52:32;;;;;;;6.63;1.92;;;21.30;42.80;;;;;;6297338;28;20103;-64
2021/04/24 04:55:33;;;;;;;7.15;2.17;;;21.40;42.90;;;;;;6295581;28;20036;-65
2021/04/24 04:58:33;;;;;;;5.50;2.00;;;21.40;43.00;;;;;;6304468;28;20474;-64
2021/04/24 05:01:34;;;;;;;4.55;1.88;;;21.40;44.00;;;;;;6315823;28;20020;-64
2021/04/24 05:04:34;;;;;;;9.38;1.98;;;21.40;43.40;;;;;;6315955;28;20020;-64
2021/04/24 05:07:35;;;;;;;8.50;1.98;;;21.50;43.40;;;;;;6315731;28;20036;-64
2021/04/24 05:10:35;;;;;;;5.68;2.15;;;21.50;43.90;;;;;;6312287;28;20024;-64
2021/04/24 05:13:36;;;;;;;3.03;1.90;;;21.60;43.80;;;;;;6315767;28;20042;-64
2021/04/24 05:16:36;;;;;;;4.03;1.73;;;21.60;43.90;;;;;;6315670;28;20374;-65
2021/04/24 05:19:37;;;;;;;7.82;1.92;;;21.60;44.50;;;;;;6314680;28;20027;-64
2021/04/24 05:22:38;;;;;;;4.30;1.77;;;21.60;44.10;;;;;;6319837;28;20040;-64
2021/04/24 05:25:39;;;;;;;4.85;1.90;;;21.60;44.00;;;;;;6323100;28;20414;-64
2021/04/24 05:28:39;;;;;;;19.65;1.83;;;21.60;44.20;;;;;;6314730;28;20020;-64
2021/04/24 05:31:40;;;;;;;5.18;2.15;;;21.60;44.00;;;;;;6315034;28;20390;-64
2021/04/24 05:34:40;;;;;;;3.75;1.98;;;21.60;43.90;;;;;;6308780;28;20036;-65
2021/04/24 05:37:41;;;;;;;4.40;1.83;;;21.60;43.90;;;;;;6315222;28;20059;-64
2021/04/24 05:40:42;;;;;;;4.25;1.65;;;21.50;43.80;;;;;;6315892;28;20377;-64
2021/04/24 05:43:42;;;;;;;2.95;2.10;;;21.50;43.90;;;;;;6313806;28;20016;-64
2021/04/24 05:46:43;;;;;;;5.13;2.30;;;21.50;43.90;;;;;;6306045;28;20029;-64
2021/04/24 05:49:43;;;;;;;4.47;1.67;;;21.50;44.50;;;;;;6306829;28;20082;-64
2021/04/24 05:52:44;;;;;;;4.82;2.13;;;21.60;43.90;;;;;;6315465;28;20069;-63
2021/04/24 05:55:45;;;;;;;6.88;1.85;;;21.50;43.90;;;;;;6314264;28;20528;-64
2021/04/24 05:58:47;;;;;;;6.72;2.05;;;21.50;44.20;;;;;;6314520;28;20418;-63
2021/04/24 06:01:47;;;;;;;4.60;2.00;;;21.60;44.20;;;;;;6307102;28;20356;-62
2021/04/24 06:04:48;;;;;;;3.63;1.80;;;21.60;44.30;;;;;;6316041;28;20111;-63
2021/04/24 06:07:49;;;;;;;2.33;1.70;;;21.60;44.30;;;;;;6333150;28;20060;-63
2021/04/24 06:10:49;;;;;;;4.30;1.63;;;21.60;44.30;;;;;;6320494;28;20016;-62
2021/04/24 06:13:50;;;;;;;6.80;1.80;;;21.60;44.50;;;;;;6324743;28;20089;-62
2021/04/24 06:16:51;;;;;;;3.13;1.90;;;21.60;44.80;;;;;;6315706;28;20066;-63
2021/04/24 06:19:52;;;;;;;3.15;1.65;;;21.60;44.70;;;;;;6318868;28;20369;-62
2021/04/24 06:22:52;;;;;;;4.95;1.42;;;21.60;44.50;;;;;;6317971;28;20506;-63
2021/04/24 06:25:53;;;;;;;2.53;1.30;;;21.60;44.50;;;;;;6319179;28;20107;-63
2021/04/24 06:28:53;;;;;;;3.38;1.90;;;21.60;44.50;;;;;;6305723;28;20048;-63
2021/04/24 06:31:54;;;;;;;5.63;1.60;;;21.60;44.70;;;;;;6318637;28;20024;-63
2021/04/24 06:34:55;;;;;;;2.42;1.67;;;21.60;44.50;;;;;;6330173;28;20024;-64
2021/04/24 06:37:58;;;;;;;2.85;1.65;;;21.60;44.50;;;;;;6319036;28;20093;-64
2021/04/24 06:40:59;;;;;;;4.25;1.45;;;21.60;44.70;;;;;;6316692;28;20032;-63
2021/04/24 06:44:00;;;;;;;3.15;1.60;;;21.60;44.50;;;;;;6299821;28;20016;-63
2021/04/24 06:47:00;;;;;;;9.98;1.67;;;21.60;44.70;;;;;;6316260;28;20045;-63
2021/04/24 06:50:02;;;;;;;4.95;2.05;;;21.70;44.60;;;;;;6304252;28;20040;-63
2021/04/24 06:53:04;;;;;;;2.72;1.40;;;21.70;44.50;;;;;;6316622;28;20017;-64
2021/04/24 06:56:04;;;;;;;4.90;1.63;;;21.70;44.60;;;;;;6324629;28;20466;-63
2021/04/24 06:59:05;;;;;;;2.90;1.60;;;21.70;44.50;;;;;;6324394;28;20056;-64
2021/04/24 07:02:08;;;;;;;7.60;1.70;;;21.70;44.60;;;;;;6315788;28;20039;-63
2021/04/24 07:05:10;;;;;;;8.02;1.77;;;21.70;44.60;;;;;;6301261;28;20020;-63
2021/04/24 07:08:11;;;;;;;6.45;1.40;;;21.70;44.60;;;;;;6317580;28;20495;-64
2021/04/24 07:11:11;;;;;;;4.43;1.63;;;21.60;44.60;;;;;;6301491;28;20132;-63
2021/04/24 07:14:12;;;;;;;9.85;1.70;;;21.70;44.60;;;;;;6313498;28;20077;-63
2021/04/24 07:17:12;;;;;;;7.40;1.83;;;21.70;44.70;;;;;;6316049;28;20066;-64
2021/04/24 07:20:14;;;;;;;2.40;1.52;;;21.70;44.70;;;;;;6302375;28;20038;-64
2021/04/24 07:23:14;;;;;;;3.40;1.50;;;21.70;44.80;;;;;;6313584;28;20028;-63
2021/04/24 07:26:16;;;;;;;7.50;1.30;;;21.70;44.90;;;;;;6307888;28;20147;-65
2021/04/24 07:29:17;;;;;;;5.13;1.70;;;21.70;45.00;;;;;;6303534;28;20052;-64
2021/04/24 07:32:17;;;;;;;4.72;1.60;;;21.80;45.00;;;;;;6317245;28;20028;-65
2021/04/24 07:35:18;;;;;;;5.90;1.60;;;21.80;45.10;;;;;;6314670;28;20036;-63
2021/04/24 07:38:20;;;;;;;5.63;1.98;;;21.80;44.90;;;;;;6319551;28;20553;-63
2021/04/24 07:41:21;;;;;;;2.80;1.60;;;21.70;43.80;;;;;;6318934;28;20473;-64
2021/04/24 07:44:24;;;;;;;5.70;1.77;;;21.70;43.40;;;;;;6317248;28;20027;-63
2021/04/24 07:47:25;;;;;;;10.00;2.30;;;21.70;43.50;;;;;;6318169;28;20053;-63
2021/04/24 07:50:25;;;;;;;6.82;1.70;;;21.70;43.80;;;;;;6318694;28;20064;-63
2021/04/24 07:53:26;;;;;;;8.52;1.90;;;21.70;43.80;;;;;;6318503;28;20483;-63
2021/04/24 07:56:26;;;;;;;12.20;1.70;;;21.70;43.80;;;;;;6318663;28;20016;-63
2021/04/24 07:59:27;;;;;;;5.45;1.63;;;21.70;43.80;;;;;;6318251;28;20043;-63
2021/04/24 08:02:27;;;;;;;3.80;1.77;;;21.70;43.90;;;;;;6318904;28;20040;-63
2021/04/24 08:05:28;;;;;;;5.20;1.58;;;21.70;43.80;;;;;;6318031;28;20136;-63
2021/04/24 08:08:29;;;;;;;2.53;1.40;;;21.70;43.80;;;;;;6318527;28;20020;-64
2021/04/24 08:11:29;;;;;;;4.15;1.52;;;21.70;43.90;;;;;;6318019;28;20050;-63
2021/04/24 08:14:30;;;;;;;4.53;1.55;;;21.70;43.90;;;;;;6317967;28;20036;-64
2021/04/24 08:17:30;;;;;;;3.58;1.40;;;21.70;43.90;;;;;;6318418;28;20020;-63
2021/04/24 08:20:31;;;;;;;2.67;1.45;;;21.70;44.00;;;;;;6318374;28;20550;-63
2021/04/24 08:23:32;;;;;;;2.40;1.40;;;21.70;43.90;;;;;;6316949;28;20026;-63
2021/04/24 08:26:32;;;;;;;3.40;1.58;;;21.70;44.00;;;;;;6317719;28;20066;-63
2021/04/24 08:29:33;;;;;;;2.47;1.45;;;21.70;44.00;;;;;;6317918;28;20047;-63
2021/04/24 08:32:35;;;;;;;1.88;1.25;;;21.70;44.00;;;;;;6317587;28;20097;-63
2021/04/24 08:35:36;;;;;;;2.53;1.30;;;21.70;44.00;;;;;;6317708;28;20028;-63
2021/04/24 08:38:37;;;;;;;2.20;1.23;;;21.70;44.00;;;;;;6317897;28;20488;-63
2021/04/24 08:41:38;;;;;;;2.40;1.35;;;21.70;44.10;;;;;;6317332;28;20162;-63
2021/04/24 08:44:38;;;;;;;2.15;1.15;;;21.70;44.00;;;;;;6317604;28;20024;-63
2021/04/24 08:47:43;;;;;;;2.30;1.50;;;21.70;44.00;;;;;;6316943;28;20050;-63
2021/04/24 08:50:43;;;;;;;2.23;1.60;;;21.70;44.00;;;;;;6317302;28;20080;-63
2021/04/24 08:53:44;;;;;;;1.88;1.30;;;21.70;44.10;;;;;;6317146;28;20453;-63
2021/04/24 08:56:44;;;;;;;2.50;1.23;;;21.70;44.00;;;;;;6317167;28;20027;-63
2021/04/24 08:59:45;;;;;;;2.85;1.35;;;21.70;44.10;;;;;;6317271;28;20111;-63
2021/04/24 09:02:46;;;;;;;1.65;1.05;;;21.70;44.00;;;;;;6316957;28;20036;-64
2021/04/24 09:05:54;;;;;;;4.30;1.40;;;21.70;44.10;;;;;;6317267;28;20020;-64
2021/04/24 09:09:00;;;;;;;2.40;1.40;;;21.70;44.00;;;;;;6316887;28;20020;-63
2021/04/24 09:12:01;;;;;;;1.73;1.27;;;21.80;44.10;;;;;;6316749;28;20028;-63
2021/04/24 09:15:12;;;;;;;2.08;1.25;;;21.70;44.10;;;;;;6317127;28;20039;-64
2021/04/24 09:18:15;;;;;;;2.15;1.10;;;21.70;44.00;;;;;;6316886;28;20432;-63
2021/04/24 09:21:21;;;;;;;1.60;1.30;;;21.70;44.00;;;;;;6316259;28;20020;-63
2021/04/24 09:24:35;;;;;;;2.25;1.10;;;21.80;44.10;;;;;;6316513;28;20020;-63
2021/04/24 09:27:43;;;;;;;1.92;1.05;;;21.70;44.00;;;;;;6316409;28;20032;-64
2021/04/24 09:30:44;;;;;;;1.40;1.00;;;21.70;44.00;;;;;;6316578;28;20030;-64
2021/04/24 09:33:46;;;;;;;1.77;0.98;;;21.70;44.00;;;;;;6316783;28;20500;-63
2021/04/24 09:36:55;;;;;;;4.03;1.17;;;21.80;44.10;;;;;;6315108;28;20027;-63
2021/04/24 09:39:56;;;;;;;2.47;1.20;;;21.80;44.10;;;;;;6316061;28;20031;-64
2021/04/24 09:43:07;;;;;;;1.63;1.00;;;21.80;44.10;;;;;;6316324;28;20064;-63
2021/04/24 09:46:08;;;;;;;1.80;1.13;;;21.80;44.10;;;;;;6316438;28;20028;-63
2021/04/24 09:49:09;;;;;;;1.50;1.10;;;21.70;44.10;;;;;;6316166;28;20359;-63
2021/04/24 09:52:11;;;;;;;1.65;1.10;;;21.80;44.20;;;;;;6316646;28;20079;-63
2021/04/24 09:55:35;;;;;;;2.22;1.10;;;21.80;44.10;;;;;;6316288;28;20105;-63
2021/04/24 09:58:37;;;;;;;1.60;1.00;;;21.80;44.10;;;;;;6315970;28;20024;-63
2021/04/24 10:01:41;;;;;;;1.83;1.08;;;21.80;44.10;;;;;;6316432;28;20032;-64
2021/04/24 10:04:42;;;;;;;1.42;0.93;;;21.80;44.10;;;;;;6316193;28;20036;-66
2021/04/24 10:07:56;;;;;;;1.40;0.93;;;21.80;44.10;;;;;;6316107;28;20031;-64
2021/04/24 10:10:57;;;;;;;1.20;1.10;;;21.80;44.10;;;;;;6315938;28;20624;-63
2021/04/24 10:13:57;;;;;;;1.67;1.10;;;21.80;44.10;;;;;;6315734;28;20071;-63
2021/04/24 10:17:00;;;;;;;2.58;1.15;;;21.80;44.10;;;;;;6315970;28;20115;-63
2021/04/24 10:20:01;;;;;;;1.35;1.02;;;21.80;44.10;;;;;;6315968;28;20486;-63
2021/04/24 10:23:04;;;;;;;2.35;1.05;;;21.80;44.10;;;;;;6316041;28;20643;-63
2021/04/24 10:26:04;;;;;;;2.42;1.00;;;21.80;44.00;;;;;;6316025;28;20032;-63
2021/04/24 10:29:06;;;;;;;1.15;1.05;;;21.80;44.00;;;;;;6315734;28;20071;-63
2021/04/24 10:32:07;;;;;;;1.75;1.23;;;21.80;44.00;;;;;;6316200;28;20311;-64
2021/04/24 10:35:10;;;;;;;2.38;1.23;;;21.80;44.00;;;;;;6315455;28;20943;-63
2021/04/24 10:38:10;;;;;;;1.45;0.90;;;21.80;44.00;;;;;;6316128;28;20115;-63
2021/04/24 10:41:13;;;;;;;1.60;1.08;;;21.80;44.00;;;;;;6315570;28;20028;-64
2021/04/24 10:44:15;;;;;;;1.50;1.10;;;21.80;44.00;;;;;;6315451;28;20024;-63
2021/04/24 10:50:39;;;;;;;2.53;1.10;;;21.80;44.00;;;;;;6319859;28;20051;-64
2021/04/24 10:53:40;;;;;;;1.58;1.08;;;21.80;44.00;;;;;;6320230;28;20512;-63
2021/04/24 10:56:40;;;;;;;2.13;1.10;;;21.80;44.00;;;;;;6320247;28;20024;-63
2021/04/24 10:59:53;;;;;;;1.23;1.10;;;21.80;43.90;;;;;;6320221;28;20035;-63
2021/04/24 11:02:55;;;;;;;2.20;1.02;;;21.80;44.00;;;;;;6320348;28;20417;-63
2021/04/24 11:06:10;;;;;;;1.63;0.82;;;21.80;44.00;;;;;;6319537;28;20099;-63
2021/04/24 11:09:19;;;;;;;1.83;1.17;;;21.80;44.00;;;;;;6319603;28;20386;-63
2021/04/24 11:12:20;;;;;;;1.23;0.80;;;21.70;43.90;;;;;;6319750;28;20038;-64
2021/04/24 11:15:21;;;;;;;1.23;0.98;;;21.70;44.00;;;;;;6318912;28;20510;-63
2021/04/24 11:18:23;;;;;;;2.20;1.02;;;21.70;44.00;;;;;;6319688;28;20549;-63
2021/04/24 11:21:29;;;;;;;1.70;0.90;;;21.70;44.00;;;;;;6319871;28;20024;-63
2021/04/24 11:24:36;;;;;;;1.70;1.10;;;21.70;43.80;;;;;;6319114;28;20115;-63
2021/04/24 11:28:05;;;;;;;1.77;1.20;;;21.70;43.90;;;;;;6319730;28;20023;-64
2021/04/24 11:31:07;;;;;;;1.30;1.02;;;21.70;44.00;;;;;;6319235;28;20312;-65
2021/04/24 11:34:27;;;;;;;0.93;0.80;;;21.70;43.90;;;;;;6319490;28;20126;-65
2021/04/24 11:37:28;;;;;;;1.30;0.90;;;21.70;43.90;;;;;;6319679;28;20082;-66
2021/04/24 11:40:29;;;;;;;1.40;0.85;;;21.70;43.90;;;;;;6319476;28;20030;-65
2021/04/24 11:43:29;;;;;;;1.58;0.90;;;21.70;44.00;;;;;;6319034;28;20024;-63
2021/04/24 11:46:37;;;;;;;1.58;1.10;;;21.70;44.70;;;;;;6318949;28;20040;-63
2021/04/24 11:49:50;;;;;;;1.77;1.10;;;21.70;44.00;;;;;;6318448;28;20087;-65
2021/04/24 11:52:57;;;;;;;1.33;0.90;;;21.70;43.90;;;;;;6319221;28;20024;-63
2021/04/24 11:55:58;;;;;;;1.45;0.93;;;21.70;44.00;;;;;;6318870;28;20474;-63
2021/04/24 11:58:59;;;;;;;2.80;1.17;;;21.70;44.00;;;;;;6318885;28;20016;-63
2021/04/24 12:02:12;;;;;;;1.00;0.90;;;21.70;44.10;;;;;;6318727;28;20028;-64
2021/04/24 12:05:13;;;;;;;1.30;0.98;;;21.70;44.00;;;;;;6318360;28;20110;-62
2021/04/24 12:08:20;;;;;;;5.35;1.40;;;21.70;45.20;;;;;;6317819;28;20398;-63
2021/04/24 12:11:21;;;;;;;12.18;1.40;;;21.70;44.10;;;;;;6317827;28;20028;-64
2021/04/24 12:14:22;;;;;;;5.82;1.27;;;21.70;43.50;;;;;;6316967;28;20111;-63
2021/04/24 12:17:23;;;;;;;2.67;1.48;;;21.70;43.20;;;;;;6316876;28;20615;-64
2021/04/24 12:20:30;;;;;;;3.50;1.45;;;21.70;43.30;;;;;;6317326;28;20050;-63
2021/04/24 12:23:30;;;;;;;3.03;1.20;;;21.70;43.40;;;;;;6317794;28;20021;-63
2021/04/24 12:26:31;;;;;;;2.78;1.10;;;21.70;43.40;;;;;;6316842;28;20395;-63
2021/04/24 12:29:45;;;;;;;7.32;1.30;;;21.70;43.50;;;;;;6317129;28;20050;-62
2021/04/24 12:33:09;;;;;;;2.65;1.05;;;21.70;43.60;;;;;;6317111;28;20028;-62
2021/04/24 12:36:10;;;;;;;4.82;1.20;;;21.70;43.40;;;;;;6317146;28;20020;-64
2021/04/24 12:39:16;;;;;;;1.77;1.20;;;21.70;43.70;;;;;;6316473;28;20081;-64
2021/04/24 12:42:17;;;;;;;4.32;1.25;;;21.70;43.50;;;;;;6317036;28;20378;-64
2021/04/24 12:45:23;;;;;;;3.15;1.25;;;21.70;43.80;;;;;;6317045;28;20032;-63
2021/04/24 12:48:26;;;;;;;1.58;1.02;;;21.70;43.60;;;;;;6316244;28;20139;-64
2021/04/24 12:51:27;;;;;;;2.55;1.63;;;21.60;43.90;;;;;;6316145;28;20039;-65
2021/04/24 12:54:28;;;;;;;2.70;1.23;;;21.70;43.80;;;;;;6316494;28;20470;-63
2021/04/24 12:57:29;;;;;;;3.17;1.13;;;21.60;43.70;;;;;;6316404;28;20024;-62
2021/04/24 13:00:33;;;;;;;1.23;1.00;;;21.70;44.00;;;;;;6316613;28;20066;-63
2021/04/24 13:03:35;;;;;;;2.60;1.00;;;21.60;44.30;;;;;;6316254;28;20028;-63
2021/04/24 13:06:37;;;;;;;2.10;1.10;;;21.60;43.70;;;;;;6316197;28;20073;-63
2021/04/24 13:09:38;;;;;;;2.22;0.80;;;21.60;43.70;;;;;;6315890;28;20035;-63
2021/04/24 13:12:50;;;;;;;1.02;0.77;;;21.60;43.90;;;;;;6305962;28;20654;-62
2021/04/24 13:15:50;;;;;;;3.65;1.02;;;21.60;44.10;;;;;;6299584;28;20432;-62
2021/04/24 13:18:51;;;;;;;2.13;1.00;;;21.60;43.90;;;;;;6312979;28;20327;-63
2021/04/24 13:21:54;;;;;;;2.95;1.00;;;21.60;44.00;;;;;;6312357;28;20020;-62
2021/04/24 13:24:54;;;;;;;0.70;0.65;;;21.60;44.00;;;;;;6306232;28;20067;-63
2021/04/24 13:27:55;;;;;;;8.15;1.20;;;21.60;44.30;;;;;;6313737;28;20081;-63
2021/04/24 13:30:59;;;;;;;8.43;1.15;;;21.70;44.30;;;;;;6313050;28;20367;-63
2021/04/24 13:33:59;;;;;;;3.92;1.00;;;21.70;44.20;;;;;;6311547;28;20485;-64
2021/04/24 13:37:12;;;;;;;4.18;0.90;;;21.70;44.30;;;;;;6313576;28;20030;-64
2021/04/24 13:40:12;;;;;;;2.60;1.15;;;21.70;44.00;;;;;;6313265;28;20036;-65
2021/04/24 13:43:27;;;;;;;1.92;0.80;;;21.70;44.00;;;;;;6307672;28;20035;-65
2021/04/24 13:46:27;;;;;;;2.65;1.00;;;21.70;44.10;;;;;;6303920;28;20597;-63
2021/04/24 13:49:28;;;;;;;1.38;0.90;;;21.70;44.40;;;;;;6309014;28;20129;-63
2021/04/24 13:52:29;;;;;;;1.70;0.80;;;21.70;44.10;;;;;;6313375;28;20024;-63
2021/04/24 13:55:29;;;;;;;3.90;1.00;;;21.70;44.20;;;;;;6312448;28;20047;-63
2021/04/24 13:58:30;;;;;;;2.67;0.90;;;21.70;44.60;;;;;;6311966;28;20111;-63
2021/04/24 14:01:30;;;;;;;3.03;1.02;;;21.70;44.30;;;;;;6292643;28;20059;-63
2021/04/24 14:04:31;;;;;;;4.15;1.00;;;21.70;44.60;;;;;;6298297;28;20049;-62
2021/04/24 14:07:32;;;;;;;1.13;0.85;;;21.70;44.50;;;;;;6309669;28;20407;-63
2021/04/24 14:10:33;;;;;;;3.90;1.08;;;21.70;44.60;;;;;;6310270;28;20116;-63
2021/04/24 14:13:33;;;;;;;4.03;0.95;;;21.70;44.80;;;;;;6313206;28;20153;-63
2021/04/24 14:16:36;;;;;;;2.63;1.10;;;21.70;44.70;;;;;;6307445;28;20471;-63
2021/04/24 14:19:37;;;;;;;1.60;0.88;;;21.70;44.90;;;;;;6301529;28;20020;-62
2021/04/24 14:22:37;;;;;;;2.75;0.95;;;21.70;44.90;;;;;;6305740;28;20020;-63
2021/04/24 14:25:38;;;;;;;1.15;0.80;;;21.70;44.80;;;;;;6313225;28;20039;-62
2021/04/24 14:28:38;;;;;;;2.72;0.98;;;21.70;45.00;;;;;;6290567;28;20047;-62
2021/04/24 14:31:39;;;;;;;5.03;0.75;;;21.70;44.80;;;;;;6311164;28;20028;-63
2021/04/24 14:34:40;;;;;;;10.45;1.30;;;21.70;44.70;;;;;;6306001;28;20071;-62
2021/04/24 14:37:41;;;;;;;5.55;1.30;;;21.60;42.80;;;;;;6303848;28;20307;-63
2021/04/24 14:40:42;;;;;;;7.43;1.48;;;21.60;40.60;;;;;;6313652;28;20089;-62
2021/04/24 14:43:42;;;;;;;2.90;1.23;;;21.60;40.00;;;;;;6318870;28;20061;-63
2021/04/24 14:46:43;;;;;;;7.72;1.40;;;21.60;38.40;;;;;;6309964;28;20107;-62
2021/04/24 14:49:43;;;;;;;9.00;1.95;;;21.60;38.00;;;;;;6318108;28;20059;-62
2021/04/24 14:52:45;;;;;;;7.03;1.33;;;21.60;37.10;;;;;;6301843;28;20367;-62
2021/04/24 14:55:45;;;;;;;9.82;1.90;;;21.60;36.80;;;;;;6319193;28;20032;-63
2021/04/24 14:58:46;;;;;;;6.57;1.67;;;21.60;36.10;;;;;;6317743;28;20039;-62
2021/04/24 15:01:50;;;;;;;5.38;1.70;;;21.60;35.20;;;;;;6318322;28;20103;-63
2021/04/24 15:04:51;;;;;;;4.82;1.67;;;21.60;35.30;;;;;;6310310;28;20017;-63
2021/04/24 15:07:51;;;;;;;5.80;1.67;;;21.50;35.10;;;;;;6308604;28;20024;-62
2021/04/24 15:10:52;;;;;;;6.35;1.73;;;21.50;35.10;;;;;;6312512;28;20156;-62
2021/04/24 15:13:53;;;;;;;3.83;1.70;;;21.50;34.60;;;;;;6318654;28;20490;-63
2021/04/24 15:16:54;;;;;;;4.68;1.60;;;21.50;34.70;;;;;;6318119;28;20175;-63
2021/04/24 15:20:06;;;;;;;5.18;1.65;;;21.50;34.40;;;;;;6297712;28;20028;-63
2021/04/24 15:23:06;;;;;;;6.28;1.65;;;21.50;33.90;;;;;;6333140;28;20020;-62
2021/04/24 15:26:07;;;;;;;6.93;1.88;;;21.50;33.60;;;;;;6313846;28;20013;-62
2021/04/24 15:29:08;;;;;;;6.55;1.58;;;21.50;33.40;;;;;;6302420;28;20039;-63
2021/04/24 15:32:08;;;;;;;4.18;1.90;;;21.50;33.20;;;;;;6316973;28;20093;-62
2021/04/24 15:35:11;;;;;;;7.78;1.65;;;21.50;33.40;;;;;;6315796;28;20048;-62
2021/04/24 15:38:11;;;;;;;9.38;2.00;;;21.40;33.10;;;;;;6314774;28;20080;-62
2021/04/24 15:41:12;;;;;;;6.35;1.80;;;21.40;32.60;;;;;;6317688;28;20489;-62
2021/04/24 15:44:13;;;;;;;4.15;1.73;;;21.40;32.70;;;;;;6317810;28;20024;-62
2021/04/24 15:47:14;;;;;;;8.38;1.65;;;21.40;32.80;;;;;;6317400;28;20024;-62
2021/04/24 15:50:22;;;;;;;7.00;1.88;;;21.40;32.60;;;;;;6315820;28;20279;-63